Aldea Protestante, Argentina
Current Conditions -  °F | °C
As of 12:00 AM on Friday 26 Dec 2014 (Local Time) from SAAR Reporting Station
Clear Clear  
Wind Chill: 26°   Ceiling: Unl
Heat Index: 27°   Visibility: 6mi
Dew Point: 21°   Wind: 5mph
Humidity: 74%   Direction: 70°ENE
Pressure: 29.83"   Gusts: NA
Location:  31.99°S, 60.59°W
Report Text: SAAR 260300Z 07004KT CAVOK 26/21 Q1010
Loading
Personal Weather Stations






























Interactive Weather Map New forecast layout! Learn more

10-Day Weather Forecast

Advertisements
Track Severe Weather on mobile